Terminal Aerodrome Forecast
Issued by NWS Wilmington, OH

Current Version | Previous Version | Graphics & Text | Print | Product List | Glossary On
Versions: 1 2 3 4 5 6 7 8 9 10 11 12 13 14 15 16 17 18 19 20 21 22 23 24 25 26 27 28 29 30 31 32
338
FTUS41 KILN 021102 AAB
TAFCVG
TAF AMD
KCVG 021102Z 0211/0312 28006KT P6SM OVC022
      TEMPO 0211/0213 OVC018
     FM021500 27012KT P6SM BKN035
     FM022300 29006KT P6SM BKN035=

USA.gov is the U.S. government's official web portal to all federal, state and local government web resources and services.